Time;durP1;ratioP1;P1;durP2;ratioP2;P2;SDS_P1;SDS_P2;PMS_P1;PMS_P2;Temp;Humidity;BMP_temperature;BMP_pressure;BME280_temperature;BME280_humidity;BME280_pressure;Samples;Min_cycle;Max_cycle;Signal;HPM_P1;HPM_P2
2021/03/15 00:05:16;;;;;;;52.83;23.77;;;;;;;1.17;74.07;98311.20;4364151;80;21226;-89
2021/03/15 00:11:17;;;;;;;56.25;25.05;;;;;;;1.14;74.27;98313.98;4361965;80;21213;-87
2021/03/15 00:17:19;;;;;;;55.70;26.75;;;;;;;1.11;74.40;98319.27;4360973;80;21673;-87
2021/03/15 00:23:21;;;;;;;62.03;28.20;;;;;;;1.09;74.75;98314.20;4363639;80;21205;-88
2021/03/15 00:29:24;;;;;;;58.20;24.82;;;;;;;1.20;75.12;98314.04;4362898;80;21351;-88
2021/03/15 00:35:26;;;;;;;59.73;26.20;;;;;;;1.29;75.06;98314.75;4355487;80;21241;-88
2021/03/15 00:41:27;;;;;;;51.80;22.48;;;;;;;1.40;75.51;98316.47;4363788;80;21178;-87
2021/03/15 00:47:29;;;;;;;56.50;24.85;;;;;;;1.57;75.67;98310.91;4378865;80;21204;-89
2021/03/15 00:53:30;;;;;;;57.85;26.75;;;;;;;1.75;75.60;98307.48;4379351;80;21711;-88
2021/03/15 00:59:32;;;;;;;47.98;24.85;;;;;;;1.77;75.28;98302.55;4382023;80;21179;-89
2021/03/15 01:05:43;;;;;;;65.00;27.65;;;;;;;1.77;75.28;98302.55;4369021;80;21182;-88
2021/03/15 01:11:47;;;;;;;65.42;26.70;;;;;;;1.96;75.40;98300.89;4366727;81;21655;-87
2021/03/15 01:17:49;;;;;;;63.90;28.52;;;;;;;1.89;75.69;98292.57;4376203;80;21189;-89
2021/03/15 01:23:52;;;;;;;67.30;26.87;;;;;;;1.88;75.62;98286.16;4381599;80;21196;-88
2021/03/15 01:29:54;;;;;;;63.52;26.80;;;;;;;1.82;75.74;98281.52;4379646;79;21311;-87
2021/03/15 01:35:56;;;;;;;53.65;23.55;;;;;;;1.69;75.92;98242.72;4380101;80;21162;-87
2021/03/15 01:42:00;;;;;;;59.27;24.52;;;;;;;1.85;76.02;98238.25;4379339;80;21183;-88
2021/03/15 01:48:06;;;;;;;62.38;26.33;;;;;;;1.85;76.02;98238.25;4376292;80;21159;-90
2021/03/15 01:54:08;;;;;;;56.85;27.35;;;;;;;2.08;75.72;98249.63;4374847;80;21283;-90
2021/03/15 02:00:13;;;;;;;62.15;29.50;;;;;;;2.10;75.39;98245.23;4379444;80;21152;-88
2021/03/15 02:06:14;;;;;;;64.45;28.98;;;;;;;1.83;75.74;98233.74;4382163;80;21658;-89
2021/03/15 02:12:41;;;;;;;73.85;32.67;;;;;;;1.98;75.89;98247.91;4373590;80;21222;-88
2021/03/15 02:18:57;;;;;;;64.92;30.92;;;;;;;1.90;75.64;98238.80;4363444;80;21555;-88
2021/03/15 02:25:40;;;;;;;52.40;22.07;;;;;;;1.75;75.85;98246.22;4369847;80;21669;-88
2021/03/15 02:32:24;;;;;;;67.40;30.88;;;;;;;1.78;75.98;98250.14;4385607;80;21628;-87
2021/03/15 02:38:28;;;;;;;66.87;31.70;;;;;;;1.53;75.75;98254.13;4236372;80;21200;-87
2021/03/15 02:44:33;;;;;;;65.60;32.80;;;;;;;1.32;76.06;98249.37;4391311;80;21129;-88
2021/03/15 02:50:39;;;;;;;73.02;32.58;;;;;;;1.21;76.14;98264.94;4401737;79;21174;-88
2021/03/15 02:56:47;;;;;;;67.10;27.03;;;;;;;1.23;76.68;98269.44;4403230;79;21161;-87
2021/03/15 03:02:49;;;;;;;69.17;32.63;;;;;;;1.20;76.87;98283.59;4398626;79;21602;-88
2021/03/15 03:08:52;;;;;;;64.92;31.85;;;;;;;1.14;76.70;98280.29;4401306;80;21220;-89
2021/03/15 03:14:55;;;;;;;85.47;37.08;;;;;;;0.94;76.99;98265.50;4400374;80;21616;-87
2021/03/15 03:20:59;;;;;;;67.00;28.62;;;;;;;0.94;76.99;98265.50;4377843;80;21153;-88
2021/03/15 03:27:03;;;;;;;69.75;33.35;;;;;;;1.07;77.28;98288.13;4404044;80;21188;-88
2021/03/15 03:33:08;;;;;;;63.30;30.10;;;;;;;1.12;77.39;98280.41;4250102;80;160257;-88
2021/03/15 03:39:13;;;;;;;73.52;32.48;;;;;;;1.08;77.56;98291.05;4206655;83;21217;-87
2021/03/15 03:45:15;;;;;;;67.78;32.98;;;;;;;1.23;77.52;98295.85;4204812;83;21189;-88
2021/03/15 03:51:20;;;;;;;71.90;31.35;;;;;;;1.31;77.43;98298.23;4205982;83;21635;-89
2021/03/15 03:57:35;;;;;;;66.17;31.57;;;;;;;1.27;77.46;98294.05;4200671;83;21387;-88
2021/03/15 04:03:39;;;;;;;61.55;28.60;;;;;;;1.28;77.43;98288.91;4203787;83;21221;-89
2021/03/15 04:09:44;;;;;;;66.95;30.90;;;;;;;1.41;77.60;98289.72;4100423;85;21254;-88
2021/03/15 04:15:47;;;;;;;71.28;32.65;;;;;;;1.43;77.35;98283.44;4099420;85;21244;-87
2021/03/15 04:21:51;;;;;;;83.40;33.05;;;;;;;1.51;77.27;98282.57;4104089;86;21173;-87
2021/03/15 04:27:54;;;;;;;73.97;34.67;;;;;;;1.42;77.18;98273.23;4022837;86;21165;-88
2021/03/15 04:33:56;;;;;;;69.65;32.25;;;;;;;1.19;77.24;98277.39;3989667;86;85264;-87
2021/03/15 04:39:58;;;;;;;69.42;32.85;;;;;;;1.07;77.57;98279.25;4036176;85;21333;-87
2021/03/15 04:46:00;;;;;;;72.72;34.20;;;;;;;1.01;77.86;98275.18;4130247;85;21362;-88
2021/03/15 04:52:03;;;;;;;82.40;35.33;;;;;;;0.96;77.85;98271.33;4127367;84;21184;-87
2021/03/15 04:58:06;;;;;;;83.37;37.75;;;;;;;1.02;78.11;98278.09;3963770;88;21242;-90
2021/03/15 05:04:13;;;;;;;82.82;37.70;;;;;;;1.08;78.17;98278.92;4130580;84;21687;-87
2021/03/15 05:10:17;;;;;;;80.57;37.13;;;;;;;1.08;78.17;98278.92;4071118;81;27330;-89
2021/03/15 05:16:19;;;;;;;73.12;33.92;;;;;;;1.19;78.67;98279.32;4091619;85;21368;-88
2021/03/15 05:22:22;;;;;;;66.57;32.63;;;;;;;1.34;78.57;98280.05;4094909;85;21364;-88
2021/03/15 05:28:26;;;;;;;77.25;35.50;;;;;;;1.39;78.25;98256.92;4097309;85;21176;-87
2021/03/15 05:34:30;;;;;;;75.42;34.67;;;;;;;1.66;78.24;98279.23;4095787;86;21850;-88
2021/03/15 05:40:33;;;;;;;63.83;31.87;;;;;;;1.77;78.05;98264.19;4093931;86;21430;-87
2021/03/15 05:47:29;;;;;;;76.97;30.77;;;;;;;1.85;78.41;98282.20;4057605;84;21376;-88
2021/03/15 05:54:25;;;;;;;72.97;32.08;;;;;;;1.85;78.41;98282.20;4068784;85;21723;-86
2021/03/15 06:01:01;;;;;;;88.50;38.17;;;;;;;2.05;78.10;98290.77;4057863;84;21554;-88
2021/03/15 06:07:08;;;;;;;81.90;36.03;;;;;;;1.89;77.91;98289.87;4063946;84;21207;-87
2021/03/15 06:13:15;;;;;;;83.50;38.75;;;;;;;1.91;78.29;98288.95;4055926;86;21183;-88
2021/03/15 06:19:18;;;;;;;90.05;41.95;;;;;;;2.13;78.25;98293.93;4068100;86;21230;-87
2021/03/15 06:25:20;;;;;;;71.67;36.77;;;;;;;2.32;78.62;98290.12;4064033;86;21214;-89
2021/03/15 06:31:22;;;;;;;75.50;38.08;;;;;;;2.50;78.33;98292.83;4058012;86;21203;-88
2021/03/15 06:37:24;;;;;;;80.62;36.90;;;;;;;2.67;78.21;98286.38;4067034;85;21713;-87
2021/03/15 06:43:27;;;;;;;86.60;42.08;;;;;;;2.83;78.29;98282.66;4074373;84;21379;-87
2021/03/15 06:49:30;;;;;;;92.78;46.50;;;;;;;3.02;78.04;98285.52;4098278;84;21255;-87
2021/03/15 06:55:44;;;;;;;102.20;48.50;;;;;;;3.05;78.25;98283.47;4100304;85;21238;-88
2021/03/15 07:01:46;;;;;;;101.90;49.80;;;;;;;3.29;78.10;98280.48;4098841;84;21235;-87
2021/03/15 07:07:50;;;;;;;95.00;47.58;;;;;;;3.45;78.02;98288.06;4109065;85;21235;-87
2021/03/15 07:13:52;;;;;;;104.60;49.23;;;;;;;3.68;77.96;98287.75;4099238;86;21223;-89
2021/03/15 07:19:54;;;;;;;89.77;46.53;;;;;;;3.96;77.90;98299.31;4104976;84;21190;-88
2021/03/15 07:26:01;;;;;;;91.55;43.28;;;;;;;4.09;77.72;98299.44;4107128;84;21258;-88
2021/03/15 07:32:06;;;;;;;86.25;40.88;;;;;;;4.33;77.53;98296.56;4104680;86;21623;-88
2021/03/15 07:38:08;;;;;;;76.02;38.08;;;;;;;4.50;77.23;98303.77;4110837;84;21190;-89
2021/03/15 07:44:32;;;;;;;68.40;38.40;;;;;;;4.78;76.95;98300.91;4107614;84;21217;-88
2021/03/15 07:50:35;;;;;;;71.62;37.75;;;;;;;4.93;76.58;98309.60;4094435;86;21753;-87
2021/03/15 07:56:38;;;;;;;74.65;38.20;;;;;;;5.07;76.20;98309.11;4086711;86;21226;-87
2021/03/15 08:02:42;;;;;;;60.60;32.08;;;;;;;5.33;76.24;98310.63;4098214;86;21624;-87
2021/03/15 08:19:23;;;;;;;60.88;32.93;;;;;;;5.87;74.62;98307.28;4641466;75;22982;-88
2021/03/15 08:25:26;;;;;;;69.92;36.45;;;;;;;5.97;74.79;98308.83;4562362;77;22292;-88
2021/03/15 08:31:46;;;;;;;60.40;31.48;;;;;;;5.88;74.43;98308.84;4573886;76;21202;-88
2021/03/15 08:37:58;;;;;;;62.30;34.55;;;;;;;6.02;74.38;98303.66;4570960;77;21945;-88
2021/03/15 08:44:00;;;;;;;56.95;32.48;;;;;;;6.50;74.22;98308.95;4569100;76;21199;-87
2021/03/15 08:50:34;;;;;;;51.65;27.52;;;;;;;6.54;73.66;98303.78;4584678;77;21650;-88
2021/03/15 08:56:51;;;;;;;37.70;21.40;;;;;;;6.68;73.36;98310.00;4582553;76;22745;-87
2021/03/15 09:02:53;;;;;;;35.60;21.15;;;;;;;6.69;72.45;98303.44;4492091;78;21156;-88
2021/03/15 09:09:23;;;;;;;41.73;24.05;;;;;;;6.85;71.81;98295.88;4482647;78;22069;-87
2021/03/15 09:15:34;;;;;;;36.93;21.48;;;;;;;7.06;71.59;98286.09;4483534;78;21167;-87
2021/03/15 09:21:41;;;;;;;37.13;21.20;;;;;;;7.83;70.12;98279.41;4491046;78;21175;-88
2021/03/15 09:27:52;;;;;;;40.00;22.77;;;;;;;8.06;70.07;98275.17;4480188;78;21116;-88
2021/03/15 09:33:53;;;;;;;37.93;21.60;;;;;;;8.26;69.25;98269.16;4479628;78;22654;-88
2021/03/15 09:39:56;;;;;;;32.00;19.45;;;;;;;8.55;68.92;98261.99;4491992;78;21144;-89
2021/03/15 09:52:21;;;;;;;39.18;20.77;;;;;;;9.20;67.19;98243.08;4578967;75;22581;-88
2021/03/15 09:58:39;;;;;;;31.50;19.48;;;;;;;9.95;67.23;98238.60;4490095;78;21181;-88
2021/03/15 10:04:43;;;;;;;30.20;18.98;;;;;;;9.86;65.92;98240.36;4270552;76;34130;-88
2021/03/15 10:11:04;;;;;;;33.05;19.30;;;;;;;9.74;65.68;98235.84;4230682;82;21144;-88
2021/03/15 10:17:24;;;;;;;31.15;19.40;;;;;;;9.89;65.03;98234.11;4231512;82;21216;-88
2021/03/15 10:23:31;;;;;;;34.95;20.80;;;;;;;9.82;64.66;98237.43;4228481;82;21668;-88
2021/03/15 10:29:32;;;;;;;38.00;21.35;;;;;;;9.85;63.77;98229.81;4217835;82;21177;-88
2021/03/15 10:35:35;;;;;;;25.40;15.60;;;;;;;9.72;63.14;98223.94;4223432;82;21180;-88
2021/03/15 10:41:42;;;;;;;28.87;16.90;;;;;;;9.72;63.16;98213.00;4221197;82;21710;-89
2021/03/15 10:47:44;;;;;;;29.70;17.32;;;;;;;10.18;62.00;98214.45;4221804;82;21623;-89
2021/03/15 10:53:51;;;;;;;28.27;18.67;;;;;;;10.77;61.37;98204.03;4212991;83;21194;-91
2021/03/15 11:00:23;;;;;;;32.73;18.20;;;;;;;10.60;59.90;98201.50;4574485;75;22676;-88
2021/03/15 11:06:29;;;;;;;24.57;14.80;;;;;;;10.47;60.28;98197.63;4459695;78;21219;-88
2021/03/15 11:12:51;;;;;;;28.87;14.70;;;;;;;10.12;59.61;98186.70;4483703;78;21163;-87
2021/03/15 11:19:15;;;;;;;25.02;15.00;;;;;;;10.28;58.98;98192.56;4453495;78;21297;-89
2021/03/15 11:25:23;;;;;;;27.95;17.75;;;;;;;10.85;58.36;98177.59;4490707;78;21171;-89
2021/03/15 11:31:27;;;;;;;31.68;17.73;;;;;;;10.61;57.97;98174.92;4493597;78;21331;-88
2021/03/15 11:37:32;;;;;;;28.07;16.15;;;;;;;10.16;57.57;98168.35;4484283;78;21667;-89
2021/03/15 11:43:36;;;;;;;23.92;12.43;;;;;;;9.80;57.30;98161.86;4477276;77;21315;-89
2021/03/15 11:49:59;;;;;;;32.83;18.50;;;;;;;9.40;55.86;98156.92;4451086;78;22929;-88
2021/03/15 11:56:02;;;;;;;33.63;18.45;;;;;;;9.07;57.05;98144.92;4378060;80;21451;-87
2021/03/15 12:02:05;;;;;;;35.50;18.52;;;;;;;8.75;56.88;98148.12;4387492;79;22201;-87
2021/03/15 12:15:05;;;;;;;26.07;14.90;;;;;;;8.34;57.17;98145.34;4363386;79;21191;-88
2021/03/15 12:21:07;;;;;;;31.68;16.70;;;;;;;8.28;56.93;98135.17;4347984;80;21234;-87
2021/03/15 12:27:40;;;;;;;24.45;12.70;;;;;;;8.28;57.29;98135.97;4348775;80;21654;-87
2021/03/15 12:33:43;;;;;;;28.35;14.00;;;;;;;8.20;56.70;98126.71;4355573;80;21193;-88
2021/03/15 12:40:06;;;;;;;12.35;8.30;;;;;;;8.15;56.79;98125.70;4350485;80;21202;-88
2021/03/15 12:46:08;;;;;;;16.62;9.28;;;;;;;8.16;56.39;98129.41;4344197;80;21309;-87
2021/03/15 12:52:42;;;;;;;13.98;6.72;;;;;;;8.14;56.31;98122.78;4166378;83;21355;-88
2021/03/15 12:59:14;;;;;;;18.75;9.08;;;;;;;8.15;55.63;98127.85;4591167;75;23358;-88
2021/03/15 13:05:18;;;;;;;15.65;8.83;;;;;;;8.03;56.11;98124.84;4489801;78;21139;-90
2021/03/15 13:11:38;;;;;;;20.17;10.48;;;;;;;8.08;56.16;98126.42;4481156;78;21404;-89
2021/03/15 13:17:50;;;;;;;15.35;8.23;;;;;;;8.03;55.80;98123.29;4487725;77;21757;-89
2021/03/15 13:23:51;;;;;;;17.87;8.90;;;;;;;7.99;55.86;98122.69;4484085;78;22525;-89
2021/03/15 13:29:53;;;;;;;14.78;8.50;;;;;;;8.06;55.75;98112.98;4483920;78;21203;-91
2021/03/15 13:35:55;;;;;;;16.12;8.63;;;;;;;8.13;55.83;98121.99;4483040;78;21779;-89
2021/03/15 13:41:59;;;;;;;17.42;9.05;;;;;;;8.19;55.31;98111.53;4488883;77;21133;-90
2021/03/15 13:48:16;;;;;;;15.28;9.28;;;;;;;8.29;55.23;98106.16;4588720;75;22661;-89
2021/03/15 13:54:18;;;;;;;15.85;8.45;;;;;;;8.45;55.08;98103.92;4460026;78;21227;-89
2021/03/15 14:00:21;;;;;;;15.18;8.35;;;;;;;8.63;54.88;98097.19;4195964;76;103384;-88
2021/03/15 14:06:38;;;;;;;10.60;7.37;;;;;;;8.74;54.32;98099.39;4588928;76;22963;-88
2021/03/15 14:12:42;;;;;;;9.10;6.60;;;;;;;8.68;54.34;98094.07;4484262;78;21187;-88
2021/03/15 14:18:51;;;;;;;10.48;6.62;;;;;;;8.73;53.85;98100.53;4418437;79;21097;-89
2021/03/15 14:25:15;;;;;;;11.73;6.95;;;;;;;8.91;53.42;98089.88;4422542;78;21196;-88
2021/03/15 14:31:34;;;;;;;20.92;9.50;;;;;;;8.97;52.92;98087.56;4394696;79;22980;-90
2021/03/15 14:37:37;;;;;;;16.95;8.23;;;;;;;8.64;52.03;98088.63;4326153;80;21651;-88
2021/03/15 14:43:39;;;;;;;11.03;7.05;;;;;;;8.42;52.38;98101.17;4320258;80;21203;-89
2021/03/15 14:49:42;;;;;;;10.53;6.65;;;;;;;8.44;52.52;98098.84;4330733;81;21671;-88
2021/03/15 14:55:46;;;;;;;17.92;8.38;;;;;;;8.26;52.27;98099.31;4327201;80;21327;-87
2021/03/15 15:01:48;;;;;;;20.25;9.03;;;;;;;8.10;52.99;98095.49;4324777;80;21268;-89
2021/03/15 15:07:53;;;;;;;16.25;9.28;;;;;;;8.18;52.72;98094.38;4337706;80;21205;-88
2021/03/15 15:14:08;;;;;;;19.37;9.13;;;;;;;8.16;52.88;98093.20;4168549;83;21209;-87
2021/03/15 15:20:13;;;;;;;17.62;10.08;;;;;;;8.06;52.88;98092.55;4238458;82;21308;-88
2021/03/15 15:26:15;;;;;;;15.00;9.38;;;;;;;7.85;53.14;98099.42;4243716;82;21834;-88
2021/03/15 15:32:17;;;;;;;16.35;9.85;;;;;;;7.69;53.17;98096.74;4190370;83;21197;-87
2021/03/15 15:38:19;;;;;;;17.02;10.08;;;;;;;7.57;53.76;98100.55;4174594;83;21186;-87
2021/03/15 15:44:21;;;;;;;19.15;8.98;;;;;;;7.54;53.60;98100.52;4244809;82;21346;-88
2021/03/15 15:50:25;;;;;;;15.58;9.53;;;;;;;7.48;53.52;98102.81;4243628;82;21252;-88
2021/03/15 15:56:26;;;;;;;19.10;10.08;;;;;;;7.46;53.70;98105.13;4237071;82;21211;-88
2021/03/15 16:02:28;;;;;;;22.20;10.55;;;;;;;7.39;53.69;98102.32;4179818;83;21244;-88
2021/03/15 16:08:30;;;;;;;20.92;10.40;;;;;;;7.36;53.90;98099.59;4188162;83;21347;-88
2021/03/15 16:14:32;;;;;;;19.37;10.93;;;;;;;7.31;54.02;98102.05;4186958;83;21219;-88
2021/03/15 16:20:36;;;;;;;19.05;11.03;;;;;;;7.27;54.01;98109.98;4196431;83;21332;-87
2021/03/15 16:26:38;;;;;;;21.97;12.15;;;;;;;7.15;54.19;98112.98;4249351;82;22146;-88
2021/03/15 16:32:40;;;;;;;27.07;15.93;;;;;;;7.06;54.51;98117.94;4170321;83;21780;-88
2021/03/15 17:09:55;;;;;;;41.85;19.95;;;;;;;6.01;55.91;98148.01;4425186;75;30272;-88
2021/03/15 17:15:57;;;;;;;74.35;30.48;;;;;;;5.84;55.77;98145.80;4190755;81;37291;-87
2021/03/15 17:21:58;;;;;;;53.40;27.07;;;;;;;5.55;56.71;98150.53;4022756;82;10000355;-90
2021/03/15 17:28:00;;;;;;;83.22;34.88;;;;;;;5.39;56.97;98153.13;4128139;84;21207;-88
2021/03/15 17:34:02;;;;;;;82.22;35.35;;;;;;;5.12;57.45;98155.56;4146688;84;21349;-88
2021/03/15 17:40:05;;;;;;;77.95;32.45;;;;;;;4.94;58.17;98159.28;4148908;84;21358;-88
2021/03/15 17:46:07;;;;;;;63.80;29.23;;;;;;;4.71;58.29;98163.27;4138262;84;21215;-89
2021/03/15 17:52:15;;;;;;;108.35;41.68;;;;;;;4.46;58.80;98165.25;4149254;84;21210;-88
2021/03/15 17:58:26;;;;;;;125.58;58.95;;;;;;;4.34;59.34;98170.78;4130543;84;21925;-87
2021/03/15 18:04:30;;;;;;;110.12;44.05;;;;;;;4.27;59.95;98166.57;4135400;85;21215;-90
2021/03/15 18:10:33;;;;;;;104.07;41.65;;;;;;;4.26;60.21;98174.49;4124592;85;21233;-90
2021/03/15 18:16:35;;;;;;;101.65;45.83;;;;;;;3.98;60.61;98171.10;4136447;84;21334;-88
2021/03/15 18:22:37;;;;;;;108.20;48.33;;;;;;;3.76;60.98;98167.11;4129280;84;21295;-88
2021/03/15 18:28:39;;;;;;;129.23;55.30;;;;;;;3.61;61.35;98163.84;4123761;85;22259;-87
2021/03/15 18:34:40;;;;;;;104.78;46.20;;;;;;;3.46;61.82;98161.13;4135261;84;21220;-88
2021/03/15 18:40:42;;;;;;;109.52;48.83;;;;;;;3.31;62.03;98170.80;4125992;84;21256;-87
2021/03/15 18:46:43;;;;;;;82.00;36.98;;;;;;;3.09;62.40;98173.51;4122079;84;21411;-88
2021/03/15 18:52:45;;;;;;;80.65;39.53;;;;;;;2.88;62.64;98171.56;4131516;84;21354;-89
2021/03/15 18:58:49;;;;;;;76.65;38.10;;;;;;;2.67;63.04;98167.48;4130983;84;22599;-87
2021/03/15 19:04:50;;;;;;;94.58;46.42;;;;;;;2.61;63.76;98162.10;4128211;84;21616;-89
2021/03/15 19:10:52;;;;;;;79.30;38.73;;;;;;;2.45;63.93;98158.54;4130880;85;21235;-88
2021/03/15 19:16:54;;;;;;;76.05;38.45;;;;;;;2.45;64.81;98151.78;4159677;84;21614;-87
2021/03/15 19:22:58;;;;;;;87.92;43.50;;;;;;;2.25;64.76;98156.78;4147605;84;21251;-89
2021/03/15 19:28:59;;;;;;;90.22;44.05;;;;;;;1.98;64.73;98167.73;4151699;84;21645;-87
2021/03/15 19:35:02;;;;;;;116.40;54.10;;;;;;;1.95;65.43;98167.06;4152806;84;22015;-88
2021/03/15 19:41:04;;;;;;;108.27;51.88;;;;;;;1.74;65.16;98171.00;4158047;84;22081;-87
2021/03/15 19:47:06;;;;;;;108.97;51.73;;;;;;;1.41;65.72;98177.80;4148646;84;21329;-87
2021/03/15 19:53:07;;;;;;;111.20;52.67;;;;;;;1.26;66.08;98173.06;4148302;84;21211;-87
2021/03/15 19:59:09;;;;;;;118.87;49.85;;;;;;;0.99;66.20;98179.04;4140644;84;21916;-89
2021/03/15 20:05:13;;;;;;;126.22;55.90;;;;;;;0.79;66.78;98173.93;4150278;84;21702;-89
2021/03/15 20:11:15;;;;;;;116.88;51.90;;;;;;;0.61;67.21;98172.48;4141961;84;21787;-87
2021/03/15 20:17:18;;;;;;;136.05;56.90;;;;;;;0.49;67.28;98177.02;4146738;84;21208;-87
2021/03/15 20:23:20;;;;;;;131.32;57.48;;;;;;;0.26;67.60;98176.57;4137934;84;22188;-89
2021/03/15 20:29:22;;;;;;;135.65;54.23;;;;;;;0.21;68.39;98185.38;4049686;86;21209;-87
2021/03/15 20:35:24;;;;;;;119.53;52.27;;;;;;;0.15;68.44;98190.73;4002157;86;21409;-88
2021/03/15 20:41:26;;;;;;;155.80;65.27;;;;;;;0.16;68.96;98190.40;4141857;84;21365;-87
2021/03/15 20:47:27;;;;;;;155.10;64.30;;;;;;;-0.03;68.76;98184.66;4124812;84;21246;-87
2021/03/15 20:53:29;;;;;;;147.37;61.27;;;;;;;-0.18;69.04;98193.29;4013832;85;9999686;-89
2021/03/15 20:59:30;;;;;;;156.73;69.27;;;;;;;-0.19;69.64;98195.76;4131304;84;21192;-87
2021/03/15 21:05:32;;;;;;;157.60;68.43;;;;;;;-0.35;69.49;98198.75;4127389;84;22174;-89
2021/03/15 21:11:34;;;;;;;152.97;66.57;;;;;;;-0.52;70.01;98194.21;4120755;85;21203;-87
2021/03/15 21:17:37;;;;;;;172.87;71.57;;;;;;;-0.62;70.08;98195.13;4126352;84;21208;-88
2021/03/15 21:23:38;;;;;;;162.17;71.90;;;;;;;-0.53;70.84;98194.53;4122817;84;21768;-88
2021/03/15 21:29:40;;;;;;;177.50;75.70;;;;;;;-0.48;70.43;98193.02;4131119;84;21181;-88
2021/03/15 21:35:42;;;;;;;173.50;74.53;;;;;;;-0.62;70.70;98194.58;4129439;84;21331;-87
2021/03/15 21:41:44;;;;;;;171.60;75.13;;;;;;;-0.69;70.79;98199.64;4133230;84;21223;-88
2021/03/15 21:47:45;;;;;;;164.67;71.97;;;;;;;-0.83;71.02;98196.36;4134330;84;21659;-87
2021/03/15 21:53:48;;;;;;;152.90;68.03;;;;;;;-0.98;71.52;98196.88;4130710;84;21413;-87
2021/03/15 21:59:55;;;;;;;168.23;73.93;;;;;;;-0.76;72.19;98202.05;4136224;84;21633;-88
2021/03/15 22:05:58;;;;;;;170.13;77.27;;;;;;;-0.72;71.65;98197.60;4138002;84;21235;-87
2021/03/15 22:12:01;;;;;;;165.03;74.97;;;;;;;-1.02;71.52;98203.21;4129588;84;21164;-89
2021/03/15 22:18:03;;;;;;;183.93;75.93;;;;;;;-1.23;71.91;98207.64;4126018;84;21195;-88
2021/03/15 22:24:07;;;;;;;177.13;78.70;;;;;;;-1.32;72.52;98204.18;4128052;84;21448;-87
2021/03/15 22:30:11;;;;;;;163.37;72.03;;;;;;;-1.29;72.91;98202.20;4132512;84;21164;-89
2021/03/15 22:36:13;;;;;;;171.50;71.50;;;;;;;-1.40;72.41;98198.26;4131863;85;21271;-87
2021/03/15 22:42:15;;;;;;;149.43;65.63;;;;;;;-1.40;73.29;98195.57;4129952;84;21713;-87
2021/03/15 22:48:17;;;;;;;145.20;61.70;;;;;;;-1.12;73.79;98197.61;4129150;85;21220;-88
2021/03/15 22:54:19;;;;;;;180.00;75.60;;;;;;;-1.08;73.13;98195.09;4130903;84;21201;-87
2021/03/15 23:00:25;;;;;;;168.93;69.30;;;;;;;-0.94;73.39;98193.78;4124927;84;21259;-87
2021/03/15 23:06:28;;;;;;;156.00;72.70;;;;;;;-1.14;72.74;98193.11;4100806;84;21217;-89
2021/03/15 23:12:29;;;;;;;154.47;70.80;;;;;;;-1.37;72.72;98197.63;4127620;85;21307;-88
2021/03/15 23:18:31;;;;;;;171.10;73.67;;;;;;;-1.48;73.20;98194.47;4126705;85;21505;-88
2021/03/15 23:24:52;;;;;;;170.70;71.00;;;;;;;-1.72;73.10;98203.52;4127845;85;21365;-90
2021/03/15 23:30:55;;;;;;;165.90;67.73;;;;;;;-1.77;73.54;98200.44;4124527;85;21214;-87
2021/03/15 23:37:00;;;;;;;170.03;67.00;;;;;;;-1.85;73.59;98204.47;4128155;85;21232;-88
2021/03/15 23:43:02;;;;;;;163.90;70.33;;;;;;;-1.80;74.02;98211.80;4127837;85;21236;-88
2021/03/15 23:49:03;;;;;;;170.43;70.87;;;;;;;-1.95;73.75;98214.14;4127946;85;21197;-86
2021/03/15 23:55:25;;;;;;;160.83;69.10;;;;;;;-1.95;74.30;98220.84;4127360;85;21671;-87
